Terminal Aerodrome Forecast
Issued by NWS

Home | Current Version | Previous Version | Text Only | Print | Product List | Glossary On
Versions: 1 2 3 4 5 6 7 8 9 10 11 12 13 14 15 16
000
FTUS43 KSGF 281100
TAFBBG
TAF
KBBG 281120Z 2812/0112 11004KT P6SM -SN OVC006
     FM281400 12006KT 2SM -SN BR OVC006
     FM281700 13007KT 1SM -SN BR OVC007
      TEMPO 2818/2822 1/2SM SN FG OVC003
     FM010400 11006KT 1SM -FZRASN BR OVC003=

USA.gov is the U.S. government's official web portal to all federal, state and local government web resources and services.